Teversham, United Kingdom

10:23 PM BST on April 30, 2017 (GMT +0100)
Church Road | | Change Station

Elev 39 ft 52.21 °N, 0.19 °E | Updated 1 minute ago

Mostly Cloudy
Mostly Cloudy
56.1 °F
Feels Like 56.1 °F
N
0.6
Wind Variable Wind from East
Gusts 1.9 mph

Today
High -- | Low -- °F
--% Chance of Precip.
Yesterday
High -- | Low -- °F
Precip. -- in
Pressure 29.50 in
Visibility -9999.0 miles
Clouds
Dew Point 41 °F
Humidity 57%
Rainfall 0.00 in
Snow Depth Not available.
5:30 AM 8:23 PM
Waxing Crescent, 26% visible
METAR EGMC 302050Z 08005KT CAVOK 12/06 Q0999
Pressure 29.50 in
Visibility -9999.0 miles
Clouds
Dew Point 41 °F
Humidity 57%
Rainfall 0.00 in
Snow Depth Not available.
5:30 AM 8:23 PM
Waxing Crescent, 26% visible
METAR EGMC 302050Z 08005KT CAVOK 12/06 Q0999

Get Severe Weather Alerts

Thanks for signing up!

Be on the lookout for a verification email in your inbox.

You'll start receiving the daily forecast at 8 AM.

×

10-Day Weather Forecast

×

Almanac

Astronomy

Apr. 30, 2017 Rise Set
Actual Time
Civil Twilight
Nautical Twilight
Astronomical Twilight
Moon
Length of Visible Light
Length of Day
Tomorrow will be .
, % of the Moon is Illuminated

Today's Extremes

Country Highs Country Lows

Community

WunderPhotos

WunderBlog® & News

Nearby

Air Quality

  Air Quality AQ Index Pollutant
Not available.

Snow Depth

Station Depth Elevation

Earthquake Activity

City Distance Mag. Time & Date
Minimum magnitude displayed is 2.5.

Coastal Water Temperatures

Place Temperature

Stations

Nearby Weather Stations

Station Location Temp. Windchill Dew Point Humidity Wind Precip. Elev Updated Type